sensor_id;sensor_type;location;lat;lon;timestamp;temperature;humidity
2751;DHT22;1383;48.362;10.908;2023-02-01T00:01:10;4.60;55.90
2751;DHT22;1383;48.362;10.908;2023-02-01T00:03:37;4.60;56.60
2751;DHT22;1383;48.362;10.908;2023-02-01T00:06:04;4.60;57.10
2751;DHT22;1383;48.362;10.908;2023-02-01T00:08:31;4.60;57.40
2751;DHT22;1383;48.362;10.908;2023-02-01T00:11:00;4.60;58.00
2751;DHT22;1383;48.362;10.908;2023-02-01T00:13:31;4.50;58.30
2751;DHT22;1383;48.362;10.908;2023-02-01T00:16:08;4.50;58.90
2751;DHT22;1383;48.362;10.908;2023-02-01T00:18:36;4.50;59.70
2751;DHT22;1383;48.362;10.908;2023-02-01T00:21:03;4.40;60.10
2751;DHT22;1383;48.362;10.908;2023-02-01T00:23:34;4.40;60.20
2751;DHT22;1383;48.362;10.908;2023-02-01T00:26:03;4.40;60.60
2751;DHT22;1383;48.362;10.908;2023-02-01T00:28:30;4.40;60.90
2751;DHT22;1383;48.362;10.908;2023-02-01T00:31:02;4.40;61.20
2751;DHT22;1383;48.362;10.908;2023-02-01T00:33:30;4.40;61.00
2751;DHT22;1383;48.362;10.908;2023-02-01T00:36:02;4.30;61.50
2751;DHT22;1383;48.362;10.908;2023-02-01T00:38:29;4.30;61.70
2751;DHT22;1383;48.362;10.908;2023-02-01T00:41:05;4.30;61.80
2751;DHT22;1383;48.362;10.908;2023-02-01T00:43:33;4.30;62.10
2751;DHT22;1383;48.362;10.908;2023-02-01T00:46:00;4.20;62.20
2751;DHT22;1383;48.362;10.908;2023-02-01T00:48:27;4.20;62.70
2751;DHT22;1383;48.362;10.908;2023-02-01T00:50:54;4.20;62.50
2751;DHT22;1383;48.362;10.908;2023-02-01T00:53:21;4.20;62.40
2751;DHT22;1383;48.362;10.908;2023-02-01T00:55:48;4.20;62.30
2751;DHT22;1383;48.362;10.908;2023-02-01T00:58:15;4.20;62.60
2751;DHT22;1383;48.362;10.908;2023-02-01T01:00:41;4.20;62.60
2751;DHT22;1383;48.362;10.908;2023-02-01T01:03:08;4.20;62.80
2751;DHT22;1383;48.362;10.908;2023-02-01T01:05:48;4.30;62.70
2751;DHT22;1383;48.362;10.908;2023-02-01T01:08:15;4.20;62.50
2751;DHT22;1383;48.362;10.908;2023-02-01T01:10:43;4.20;62.60
2751;DHT22;1383;48.362;10.908;2023-02-01T01:13:09;4.20;62.70
2751;DHT22;1383;48.362;10.908;2023-02-01T01:15:37;4.30;62.60
2751;DHT22;1383;48.362;10.908;2023-02-01T01:18:05;4.30;62.00
2751;DHT22;1383;48.362;10.908;2023-02-01T01:20:34;4.30;62.10
2751;DHT22;1383;48.362;10.908;2023-02-01T01:23:02;4.30;61.80
2751;DHT22;1383;48.362;10.908;2023-02-01T01:25:29;4.30;61.60
2751;DHT22;1383;48.362;10.908;2023-02-01T01:27:56;4.30;61.90
2751;DHT22;1383;48.362;10.908;2023-02-01T01:30:23;4.20;62.50
2751;DHT22;1383;48.362;10.908;2023-02-01T01:32:51;4.20;62.90
2751;DHT22;1383;48.362;10.908;2023-02-01T01:35:18;4.30;63.10
2751;DHT22;1383;48.362;10.908;2023-02-01T01:37:45;4.30;62.20
2751;DHT22;1383;48.362;10.908;2023-02-01T01:40:12;4.30;62.20
2751;DHT22;1383;48.362;10.908;2023-02-01T01:42:41;4.20;62.30
2751;DHT22;1383;48.362;10.908;2023-02-01T01:47:46;4.20;62.60
2751;DHT22;1383;48.362;10.908;2023-02-01T01:50:18;4.20;62.80
2751;DHT22;1383;48.362;10.908;2023-02-01T01:52:49;4.10;63.00
2751;DHT22;1383;48.362;10.908;2023-02-01T01:55:18;4.00;63.90
2751;DHT22;1383;48.362;10.908;2023-02-01T01:57:52;3.90;64.70
2751;DHT22;1383;48.362;10.908;2023-02-01T02:00:20;3.90;64.80
2751;DHT22;1383;48.362;10.908;2023-02-01T02:02:55;3.80;65.30
2751;DHT22;1383;48.362;10.908;2023-02-01T02:05:23;3.80;65.50
2751;DHT22;1383;48.362;10.908;2023-02-01T02:07:52;3.90;65.90
2751;DHT22;1383;48.362;10.908;2023-02-01T02:10:20;3.90;65.40
2751;DHT22;1383;48.362;10.908;2023-02-01T02:12:48;3.90;65.60
2751;DHT22;1383;48.362;10.908;2023-02-01T02:15:16;3.90;66.00
2751;DHT22;1383;48.362;10.908;2023-02-01T02:17:58;3.90;66.30
2751;DHT22;1383;48.362;10.908;2023-02-01T02:20:51;3.90;66.20
2751;DHT22;1383;48.362;10.908;2023-02-01T02:26:36;3.90;66.30
2751;DHT22;1383;48.362;10.908;2023-02-01T02:29:29;3.90;66.70
2751;DHT22;1383;48.362;10.908;2023-02-01T02:34:48;4.00;66.90
2751;DHT22;1383;48.362;10.908;2023-02-01T02:43:32;3.90;66.90
2751;DHT22;1383;48.362;10.908;2023-02-01T02:47:00;3.90;66.90
2751;DHT22;1383;48.362;10.908;2023-02-01T02:49:49;3.90;66.90
2751;DHT22;1383;48.362;10.908;2023-02-01T02:52:44;3.90;67.00
2751;DHT22;1383;48.362;10.908;2023-02-01T02:55:30;3.90;66.70
2751;DHT22;1383;48.362;10.908;2023-02-01T02:57:59;3.90;66.80
2751;DHT22;1383;48.362;10.908;2023-02-01T03:00:45;3.90;67.10
2751;DHT22;1383;48.362;10.908;2023-02-01T03:03:31;3.90;66.70
2751;DHT22;1383;48.362;10.908;2023-02-01T03:06:17;3.90;66.90
2751;DHT22;1383;48.362;10.908;2023-02-01T03:08:45;3.90;66.80
2751;DHT22;1383;48.362;10.908;2023-02-01T03:11:14;3.90;67.30
2751;DHT22;1383;48.362;10.908;2023-02-01T03:13:59;3.80;68.10
2751;DHT22;1383;48.362;10.908;2023-02-01T03:19:14;3.90;67.30
2751;DHT22;1383;48.362;10.908;2023-02-01T03:21:50;4.00;66.80
2751;DHT22;1383;48.362;10.908;2023-02-01T03:24:26;4.00;66.90
2751;DHT22;1383;48.362;10.908;2023-02-01T03:32:36;4.10;66.20
2751;DHT22;1383;48.362;10.908;2023-02-01T03:40:36;4.10;65.90
2751;DHT22;1383;48.362;10.908;2023-02-01T03:43:05;4.20;65.60
2751;DHT22;1383;48.362;10.908;2023-02-01T03:45:45;4.10;65.40
2751;DHT22;1383;48.362;10.908;2023-02-01T03:48:14;4.10;65.40
2751;DHT22;1383;48.362;10.908;2023-02-01T03:50:49;4.10;65.40
2751;DHT22;1383;48.362;10.908;2023-02-01T03:53:19;4.10;65.40
2751;DHT22;1383;48.362;10.908;2023-02-01T03:55:47;4.00;65.50
2751;DHT22;1383;48.362;10.908;2023-02-01T03:58:18;4.10;65.50
2751;DHT22;1383;48.362;10.908;2023-02-01T04:00:53;4.20;65.20
2751;DHT22;1383;48.362;10.908;2023-02-01T04:03:20;4.20;65.00
2751;DHT22;1383;48.362;10.908;2023-02-01T04:05:51;4.20;64.70
2751;DHT22;1383;48.362;10.908;2023-02-01T04:08:23;4.30;64.50
2751;DHT22;1383;48.362;10.908;2023-02-01T04:10:49;4.30;64.00
2751;DHT22;1383;48.362;10.908;2023-02-01T04:13:16;4.30;63.60
2751;DHT22;1383;48.362;10.908;2023-02-01T04:15:43;4.30;63.80
2751;DHT22;1383;48.362;10.908;2023-02-01T04:18:10;4.40;63.10
2751;DHT22;1383;48.362;10.908;2023-02-01T04:20:37;4.40;62.90
2751;DHT22;1383;48.362;10.908;2023-02-01T04:23:03;4.40;63.20
2751;DHT22;1383;48.362;10.908;2023-02-01T04:25:30;4.40;63.10
2751;DHT22;1383;48.362;10.908;2023-02-01T04:27:57;4.40;62.80
2751;DHT22;1383;48.362;10.908;2023-02-01T04:30:24;4.40;62.70
2751;DHT22;1383;48.362;10.908;2023-02-01T04:32:51;4.40;62.80
2751;DHT22;1383;48.362;10.908;2023-02-01T04:35:18;4.50;62.70
2751;DHT22;1383;48.362;10.908;2023-02-01T04:37:44;4.50;62.40
2751;DHT22;1383;48.362;10.908;2023-02-01T04:40:12;4.50;62.30
2751;DHT22;1383;48.362;10.908;2023-02-01T04:42:38;4.50;62.40
2751;DHT22;1383;48.362;10.908;2023-02-01T04:45:06;4.60;62.50
2751;DHT22;1383;48.362;10.908;2023-02-01T04:47:33;4.60;62.00
2751;DHT22;1383;48.362;10.908;2023-02-01T04:49:59;4.60;61.80
2751;DHT22;1383;48.362;10.908;2023-02-01T04:52:26;4.50;61.80
2751;DHT22;1383;48.362;10.908;2023-02-01T04:54:53;4.50;62.00
2751;DHT22;1383;48.362;10.908;2023-02-01T04:57:25;4.50;62.40
2751;DHT22;1383;48.362;10.908;2023-02-01T04:59:52;4.50;62.60
2751;DHT22;1383;48.362;10.908;2023-02-01T05:02:19;4.50;63.20
2751;DHT22;1383;48.362;10.908;2023-02-01T05:04:45;4.50;63.20
2751;DHT22;1383;48.362;10.908;2023-02-01T05:07:12;4.50;63.30
2751;DHT22;1383;48.362;10.908;2023-02-01T05:09:39;4.50;63.60
2751;DHT22;1383;48.362;10.908;2023-02-01T05:12:06;4.40;63.60
2751;DHT22;1383;48.362;10.908;2023-02-01T05:14:51;4.40;63.10
2751;DHT22;1383;48.362;10.908;2023-02-01T05:17:18;4.50;63.40
2751;DHT22;1383;48.362;10.908;2023-02-01T05:19:45;4.50;63.00
2751;DHT22;1383;48.362;10.908;2023-02-01T05:22:12;4.50;62.90
2751;DHT22;1383;48.362;10.908;2023-02-01T05:24:38;4.60;62.50
2751;DHT22;1383;48.362;10.908;2023-02-01T05:27:05;4.60;62.00
2751;DHT22;1383;48.362;10.908;2023-02-01T05:29:32;4.60;61.70
2751;DHT22;1383;48.362;10.908;2023-02-01T05:31:59;4.50;61.80
2751;DHT22;1383;48.362;10.908;2023-02-01T05:34:37;4.50;61.70
2751;DHT22;1383;48.362;10.908;2023-02-01T05:37:04;4.50;62.10
2751;DHT22;1383;48.362;10.908;2023-02-01T05:39:30;4.40;62.40
2751;DHT22;1383;48.362;10.908;2023-02-01T05:41:57;4.40;63.00
2751;DHT22;1383;48.362;10.908;2023-02-01T05:44:24;4.40;63.40
2751;DHT22;1383;48.362;10.908;2023-02-01T05:46:51;4.50;63.60
2751;DHT22;1383;48.362;10.908;2023-02-01T05:49:18;4.40;63.50
2751;DHT22;1383;48.362;10.908;2023-02-01T05:51:45;4.40;63.80
2751;DHT22;1383;48.362;10.908;2023-02-01T05:54:12;4.40;63.80
2751;DHT22;1383;48.362;10.908;2023-02-01T05:56:39;4.40;63.80
2751;DHT22;1383;48.362;10.908;2023-02-01T05:59:07;4.40;63.80
2751;DHT22;1383;48.362;10.908;2023-02-01T06:01:34;4.40;64.00
2751;DHT22;1383;48.362;10.908;2023-02-01T06:04:01;4.40;64.00
2751;DHT22;1383;48.362;10.908;2023-02-01T06:06:28;4.40;63.80
2751;DHT22;1383;48.362;10.908;2023-02-01T06:08:55;4.40;63.40
2751;DHT22;1383;48.362;10.908;2023-02-01T06:11:22;4.40;63.40
2751;DHT22;1383;48.362;10.908;2023-02-01T06:13:58;4.40;63.20
2751;DHT22;1383;48.362;10.908;2023-02-01T06:16:25;4.40;63.10
2751;DHT22;1383;48.362;10.908;2023-02-01T06:18:53;4.40;63.40
2751;DHT22;1383;48.362;10.908;2023-02-01T06:21:20;4.50;63.10
2751;DHT22;1383;48.362;10.908;2023-02-01T06:23:53;4.50;62.50
2751;DHT22;1383;48.362;10.908;2023-02-01T06:26:21;4.60;62.20
2751;DHT22;1383;48.362;10.908;2023-02-01T06:28:48;4.60;61.80
2751;DHT22;1383;48.362;10.908;2023-02-01T06:31:15;4.60;61.50
2751;DHT22;1383;48.362;10.908;2023-02-01T06:33:42;4.70;61.70
2751;DHT22;1383;48.362;10.908;2023-02-01T06:36:10;4.70;61.40
2751;DHT22;1383;48.362;10.908;2023-02-01T06:38:42;4.60;61.30
2751;DHT22;1383;48.362;10.908;2023-02-01T06:41:09;4.60;61.60
2751;DHT22;1383;48.362;10.908;2023-02-01T06:43:36;4.50;62.00
2751;DHT22;1383;48.362;10.908;2023-02-01T06:46:06;4.50;62.10
2751;DHT22;1383;48.362;10.908;2023-02-01T06:48:34;4.50;62.00
2751;DHT22;1383;48.362;10.908;2023-02-01T06:51:01;4.50;62.00
2751;DHT22;1383;48.362;10.908;2023-02-01T06:53:28;4.50;61.40
2751;DHT22;1383;48.362;10.908;2023-02-01T06:55:57;4.50;61.30
2751;DHT22;1383;48.362;10.908;2023-02-01T06:58:28;4.50;61.30
2751;DHT22;1383;48.362;10.908;2023-02-01T07:00:55;4.50;61.30
2751;DHT22;1383;48.362;10.908;2023-02-01T07:03:22;4.50;61.00
2751;DHT22;1383;48.362;10.908;2023-02-01T07:05:49;4.60;60.80
2751;DHT22;1383;48.362;10.908;2023-02-01T07:08:15;4.60;60.60
2751;DHT22;1383;48.362;10.908;2023-02-01T07:10:42;4.50;60.00
2751;DHT22;1383;48.362;10.908;2023-02-01T07:13:09;4.60;59.60
2751;DHT22;1383;48.362;10.908;2023-02-01T07:15:36;4.60;59.70
2751;DHT22;1383;48.362;10.908;2023-02-01T07:18:03;4.60;59.60
2751;DHT22;1383;48.362;10.908;2023-02-01T07:20:30;4.70;59.40
2751;DHT22;1383;48.362;10.908;2023-02-01T07:22:57;4.60;59.20
2751;DHT22;1383;48.362;10.908;2023-02-01T07:25:24;4.70;59.70
2751;DHT22;1383;48.362;10.908;2023-02-01T07:27:51;4.70;58.80
2751;DHT22;1383;48.362;10.908;2023-02-01T07:30:18;4.70;58.70
2751;DHT22;1383;48.362;10.908;2023-02-01T07:32:45;4.80;58.80
2751;DHT22;1383;48.362;10.908;2023-02-01T07:35:11;4.70;57.80
2751;DHT22;1383;48.362;10.908;2023-02-01T07:37:38;4.80;58.20
2751;DHT22;1383;48.362;10.908;2023-02-01T07:40:05;4.80;57.60
2751;DHT22;1383;48.362;10.908;2023-02-01T07:42:33;4.80;57.50
2751;DHT22;1383;48.362;10.908;2023-02-01T07:45:00;4.90;57.10
2751;DHT22;1383;48.362;10.908;2023-02-01T07:47:46;4.90;56.90
2751;DHT22;1383;48.362;10.908;2023-02-01T07:50:13;4.90;57.10
2751;DHT22;1383;48.362;10.908;2023-02-01T07:52:40;5.00;56.80
2751;DHT22;1383;48.362;10.908;2023-02-01T07:55:07;5.00;56.00
2751;DHT22;1383;48.362;10.908;2023-02-01T07:57:34;5.00;55.80
2751;DHT22;1383;48.362;10.908;2023-02-01T08:00:02;5.00;55.60
2751;DHT22;1383;48.362;10.908;2023-02-01T08:02:47;5.00;55.60
2751;DHT22;1383;48.362;10.908;2023-02-01T08:05:14;5.10;55.60
2751;DHT22;1383;48.362;10.908;2023-02-01T08:07:41;5.10;55.40
2751;DHT22;1383;48.362;10.908;2023-02-01T08:10:08;5.20;55.00
2751;DHT22;1383;48.362;10.908;2023-02-01T08:12:37;5.20;54.50
2751;DHT22;1383;48.362;10.908;2023-02-01T08:15:05;5.20;54.70
2751;DHT22;1383;48.362;10.908;2023-02-01T08:17:32;5.10;54.50
2751;DHT22;1383;48.362;10.908;2023-02-01T08:19:59;5.20;54.40
2751;DHT22;1383;48.362;10.908;2023-02-01T08:22:25;5.30;54.60
2751;DHT22;1383;48.362;10.908;2023-02-01T08:24:52;5.30;54.10
2751;DHT22;1383;48.362;10.908;2023-02-01T08:27:27;5.30;54.00
2751;DHT22;1383;48.362;10.908;2023-02-01T08:29:54;5.30;54.00
2751;DHT22;1383;48.362;10.908;2023-02-01T08:32:21;5.40;53.90
2751;DHT22;1383;48.362;10.908;2023-02-01T08:34:48;5.40;53.70
2751;DHT22;1383;48.362;10.908;2023-02-01T08:37:15;5.40;53.20
2751;DHT22;1383;48.362;10.908;2023-02-01T08:39:41;5.50;53.40
2751;DHT22;1383;48.362;10.908;2023-02-01T08:42:13;5.60;53.10
2751;DHT22;1383;48.362;10.908;2023-02-01T08:44:58;5.60;52.40
2751;DHT22;1383;48.362;10.908;2023-02-01T08:47:25;5.60;52.50
2751;DHT22;1383;48.362;10.908;2023-02-01T08:49:52;5.60;52.10
2751;DHT22;1383;48.362;10.908;2023-02-01T08:52:20;5.60;52.10
2751;DHT22;1383;48.362;10.908;2023-02-01T08:54:47;5.60;52.00
2751;DHT22;1383;48.362;10.908;2023-02-01T08:57:14;5.70;51.50
2751;DHT22;1383;48.362;10.908;2023-02-01T08:59:40;5.70;51.20
2751;DHT22;1383;48.362;10.908;2023-02-01T09:02:12;5.70;51.20
2751;DHT22;1383;48.362;10.908;2023-02-01T09:04:40;5.70;51.40
2751;DHT22;1383;48.362;10.908;2023-02-01T09:07:10;5.80;51.40
2751;DHT22;1383;48.362;10.908;2023-02-01T09:09:37;5.80;51.90
2751;DHT22;1383;48.362;10.908;2023-02-01T09:12:06;5.90;50.80
2751;DHT22;1383;48.362;10.908;2023-02-01T09:14:32;6.00;50.80
2751;DHT22;1383;48.362;10.908;2023-02-01T09:17:00;6.00;50.40
2751;DHT22;1383;48.362;10.908;2023-02-01T09:19:26;6.00;50.10
2751;DHT22;1383;48.362;10.908;2023-02-01T09:21:53;6.10;50.10
2751;DHT22;1383;48.362;10.908;2023-02-01T09:24:20;6.10;49.70
2751;DHT22;1383;48.362;10.908;2023-02-01T09:26:47;6.20;49.80
2751;DHT22;1383;48.362;10.908;2023-02-01T09:29:14;6.20;49.50
2751;DHT22;1383;48.362;10.908;2023-02-01T09:31:41;6.20;49.50
2751;DHT22;1383;48.362;10.908;2023-02-01T09:34:23;6.20;49.50
2751;DHT22;1383;48.362;10.908;2023-02-01T09:36:49;6.20;49.20
2751;DHT22;1383;48.362;10.908;2023-02-01T09:39:16;6.10;49.70
2751;DHT22;1383;48.362;10.908;2023-02-01T09:42:04;6.20;49.80
2751;DHT22;1383;48.362;10.908;2023-02-01T09:44:52;6.10;49.70
2751;DHT22;1383;48.362;10.908;2023-02-01T09:47:29;6.00;49.90
2751;DHT22;1383;48.362;10.908;2023-02-01T09:50:09;6.00;50.10
2751;DHT22;1383;48.362;10.908;2023-02-01T09:52:44;6.00;50.30
2751;DHT22;1383;48.362;10.908;2023-02-01T09:55:16;6.00;50.00
2751;DHT22;1383;48.362;10.908;2023-02-01T09:57:56;6.00;50.00
2751;DHT22;1383;48.362;10.908;2023-02-01T10:00:30;6.00;50.70
2751;DHT22;1383;48.362;10.908;2023-02-01T10:03:00;6.20;50.10
2751;DHT22;1383;48.362;10.908;2023-02-01T10:11:39;6.20;49.80
2751;DHT22;1383;48.362;10.908;2023-02-01T10:14:39;6.10;49.60
2751;DHT22;1383;48.362;10.908;2023-02-01T10:22:39;6.20;50.10
2751;DHT22;1383;48.362;10.908;2023-02-01T10:25:36;6.30;49.90
2751;DHT22;1383;48.362;10.908;2023-02-01T10:28:04;6.20;49.80
2751;DHT22;1383;48.362;10.908;2023-02-01T10:30:37;6.10;50.40
2751;DHT22;1383;48.362;10.908;2023-02-01T10:33:25;6.10;50.60
2751;DHT22;1383;48.362;10.908;2023-02-01T10:36:04;6.20;50.70
2751;DHT22;1383;48.362;10.908;2023-02-01T10:38:32;6.20;50.50
2751;DHT22;1383;48.362;10.908;2023-02-01T10:41:03;6.20;49.80
2751;DHT22;1383;48.362;10.908;2023-02-01T10:43:35;6.20;49.80
2751;DHT22;1383;48.362;10.908;2023-02-01T10:46:02;6.10;49.70
2751;DHT22;1383;48.362;10.908;2023-02-01T10:48:29;6.00;49.80
2751;DHT22;1383;48.362;10.908;2023-02-01T10:51:05;6.00;50.10
2751;DHT22;1383;48.362;10.908;2023-02-01T10:53:50;6.10;49.90
2751;DHT22;1383;48.362;10.908;2023-02-01T10:56:25;6.10;49.70
2751;DHT22;1383;48.362;10.908;2023-02-01T10:59:00;6.10;49.70
2751;DHT22;1383;48.362;10.908;2023-02-01T11:04:02;6.10;49.70
2751;DHT22;1383;48.362;10.908;2023-02-01T11:06:33;6.20;49.80
2751;DHT22;1383;48.362;10.908;2023-02-01T11:11:32;6.20;49.10
2751;DHT22;1383;48.362;10.908;2023-02-01T11:14:10;6.20;49.10
2751;DHT22;1383;48.362;10.908;2023-02-01T11:16:38;6.20;49.30
2751;DHT22;1383;48.362;10.908;2023-02-01T11:19:05;6.10;49.70
2751;DHT22;1383;48.362;10.908;2023-02-01T11:21:33;6.00;49.60
2751;DHT22;1383;48.362;10.908;2023-02-01T11:24:03;6.00;49.90
2751;DHT22;1383;48.362;10.908;2023-02-01T11:26:31;6.00;50.00
2751;DHT22;1383;48.362;10.908;2023-02-01T11:29:03;6.00;49.70
2751;DHT22;1383;48.362;10.908;2023-02-01T11:31:32;6.10;49.70
2751;DHT22;1383;48.362;10.908;2023-02-01T11:34:20;6.10;49.70
2751;DHT22;1383;48.362;10.908;2023-02-01T11:36:49;6.10;49.10
2751;DHT22;1383;48.362;10.908;2023-02-01T11:39:29;6.00;49.30
2751;DHT22;1383;48.362;10.908;2023-02-01T11:42:16;6.10;49.40
2751;DHT22;1383;48.362;10.908;2023-02-01T11:44:45;6.10;49.10
2751;DHT22;1383;48.362;10.908;2023-02-01T11:49:45;6.10;48.80
2751;DHT22;1383;48.362;10.908;2023-02-01T12:06:48;5.80;49.50
2751;DHT22;1383;48.362;10.908;2023-02-01T12:23:23;5.80;49.90
2751;DHT22;1383;48.362;10.908;2023-02-01T12:29:11;6.00;49.50
2751;DHT22;1383;48.362;10.908;2023-02-01T12:32:02;6.00;49.10
2751;DHT22;1383;48.362;10.908;2023-02-01T12:40:28;5.90;48.80
2751;DHT22;1383;48.362;10.908;2023-02-01T12:43:01;6.00;48.30
2751;DHT22;1383;48.362;10.908;2023-02-01T12:45:42;6.10;48.60
2751;DHT22;1383;48.362;10.908;2023-02-01T12:51:07;6.20;47.90
2751;DHT22;1383;48.362;10.908;2023-02-01T12:56:43;6.20;47.50
2751;DHT22;1383;48.362;10.908;2023-02-01T12:59:34;6.20;47.70
2751;DHT22;1383;48.362;10.908;2023-02-01T13:02:18;6.20;47.40
2751;DHT22;1383;48.362;10.908;2023-02-01T13:05:02;6.10;48.00
2751;DHT22;1383;48.362;10.908;2023-02-01T13:07:38;6.10;48.00
2751;DHT22;1383;48.362;10.908;2023-02-01T13:10:28;6.10;48.10
2751;DHT22;1383;48.362;10.908;2023-02-01T13:13:14;6.20;48.20
2751;DHT22;1383;48.362;10.908;2023-02-01T13:18:39;6.10;48.80
2751;DHT22;1383;48.362;10.908;2023-02-01T13:21:17;6.10;49.00
2751;DHT22;1383;48.362;10.908;2023-02-01T13:23:46;6.10;49.00
2751;DHT22;1383;48.362;10.908;2023-02-01T13:26:14;6.20;49.10
2751;DHT22;1383;48.362;10.908;2023-02-01T13:28:49;6.20;48.80
2751;DHT22;1383;48.362;10.908;2023-02-01T13:42:55;6.10;48.90
2751;DHT22;1383;48.362;10.908;2023-02-01T13:45:25;6.20;49.10
2751;DHT22;1383;48.362;10.908;2023-02-01T13:47:56;6.20;49.00
2751;DHT22;1383;48.362;10.908;2023-02-01T13:50:33;6.20;49.80
2751;DHT22;1383;48.362;10.908;2023-02-01T13:55:45;6.10;51.10
2751;DHT22;1383;48.362;10.908;2023-02-01T13:58:18;5.90;52.00
2751;DHT22;1383;48.362;10.908;2023-02-01T14:00:45;5.90;53.00
2751;DHT22;1383;48.362;10.908;2023-02-01T14:03:20;5.70;53.70
2751;DHT22;1383;48.362;10.908;2023-02-01T14:08:24;5.70;54.30
2751;DHT22;1383;48.362;10.908;2023-02-01T14:11:01;5.60;54.70
2751;DHT22;1383;48.362;10.908;2023-02-01T14:13:29;5.50;54.70
2751;DHT22;1383;48.362;10.908;2023-02-01T14:21:29;5.50;54.70
2751;DHT22;1383;48.362;10.908;2023-02-01T14:24:03;5.50;54.40
2751;DHT22;1383;48.362;10.908;2023-02-01T14:29:26;5.60;53.90
2751;DHT22;1383;48.362;10.908;2023-02-01T14:32:17;5.50;53.20
2751;DHT22;1383;48.362;10.908;2023-02-01T14:42:50;5.60;52.20
2751;DHT22;1383;48.362;10.908;2023-02-01T14:56:00;5.60;50.40
2751;DHT22;1383;48.362;10.908;2023-02-01T14:58:45;5.60;49.30
2751;DHT22;1383;48.362;10.908;2023-02-01T15:01:29;5.70;49.30
2751;DHT22;1383;48.362;10.908;2023-02-01T15:04:10;5.70;48.70
2751;DHT22;1383;48.362;10.908;2023-02-01T15:14:41;5.80;46.20
2751;DHT22;1383;48.362;10.908;2023-02-01T15:19:59;5.90;45.00
2751;DHT22;1383;48.362;10.908;2023-02-01T15:22:28;5.90;45.00
2751;DHT22;1383;48.362;10.908;2023-02-01T15:24:57;5.90;45.00
2751;DHT22;1383;48.362;10.908;2023-02-01T15:27:26;5.90;44.80
2751;DHT22;1383;48.362;10.908;2023-02-01T15:29:54;5.90;44.70
2751;DHT22;1383;48.362;10.908;2023-02-01T15:32:35;6.00;44.70
2751;DHT22;1383;48.362;10.908;2023-02-01T15:35:02;6.00;44.60
2751;DHT22;1383;48.362;10.908;2023-02-01T15:37:29;5.90;45.10
2751;DHT22;1383;48.362;10.908;2023-02-01T15:45:20;5.90;45.10
2751;DHT22;1383;48.362;10.908;2023-02-01T15:47:49;5.90;45.10
2751;DHT22;1383;48.362;10.908;2023-02-01T15:50:19;5.90;45.20
2751;DHT22;1383;48.362;10.908;2023-02-01T15:52:51;5.90;45.10
2751;DHT22;1383;48.362;10.908;2023-02-01T15:57:53;5.90;45.50
2751;DHT22;1383;48.362;10.908;2023-02-01T16:00:29;5.80;45.40
2751;DHT22;1383;48.362;10.908;2023-02-01T16:02:58;5.80;45.60
2751;DHT22;1383;48.362;10.908;2023-02-01T16:05:34;5.80;45.80
2751;DHT22;1383;48.362;10.908;2023-02-01T16:08:13;5.80;45.80
2751;DHT22;1383;48.362;10.908;2023-02-01T16:10:45;5.70;45.90
2751;DHT22;1383;48.362;10.908;2023-02-01T16:13:15;5.70;46.10
2751;DHT22;1383;48.362;10.908;2023-02-01T16:15:42;5.70;46.20
2751;DHT22;1383;48.362;10.908;2023-02-01T16:18:10;5.70;46.20
2751;DHT22;1383;48.362;10.908;2023-02-01T16:20:38;5.80;46.10
2751;DHT22;1383;48.362;10.908;2023-02-01T16:23:06;5.80;45.80
2751;DHT22;1383;48.362;10.908;2023-02-01T16:25:35;5.80;45.90
2751;DHT22;1383;48.362;10.908;2023-02-01T16:28:02;5.70;45.60
2751;DHT22;1383;48.362;10.908;2023-02-01T16:30:30;5.70;45.70
2751;DHT22;1383;48.362;10.908;2023-02-01T16:32:59;5.80;45.70
2751;DHT22;1383;48.362;10.908;2023-02-01T16:35:29;5.80;45.70
2751;DHT22;1383;48.362;10.908;2023-02-01T16:38:03;5.70;46.40
2751;DHT22;1383;48.362;10.908;2023-02-01T16:40:35;5.80;45.70
2751;DHT22;1383;48.362;10.908;2023-02-01T16:43:18;5.70;45.70
2751;DHT22;1383;48.362;10.908;2023-02-01T16:45:47;5.70;45.90
2751;DHT22;1383;48.362;10.908;2023-02-01T16:48:33;5.80;46.00
2751;DHT22;1383;48.362;10.908;2023-02-01T16:51:08;5.80;46.30
2751;DHT22;1383;48.362;10.908;2023-02-01T16:53:35;5.70;46.10
2751;DHT22;1383;48.362;10.908;2023-02-01T16:56:28;5.70;46.20
2751;DHT22;1383;48.362;10.908;2023-02-01T16:58:57;5.70;46.40
2751;DHT22;1383;48.362;10.908;2023-02-01T17:01:24;5.60;46.40
2751;DHT22;1383;48.362;10.908;2023-02-01T17:03:52;5.60;46.60
2751;DHT22;1383;48.362;10.908;2023-02-01T17:06:21;5.60;46.70
2751;DHT22;1383;48.362;10.908;2023-02-01T17:08:54;5.60;46.80
2751;DHT22;1383;48.362;10.908;2023-02-01T17:11:21;5.60;46.90
2751;DHT22;1383;48.362;10.908;2023-02-01T17:13:48;5.60;46.90
2751;DHT22;1383;48.362;10.908;2023-02-01T17:18:54;5.70;47.10
2751;DHT22;1383;48.362;10.908;2023-02-01T17:21:22;5.60;47.00
2751;DHT22;1383;48.362;10.908;2023-02-01T17:23:50;5.50;47.50
2751;DHT22;1383;48.362;10.908;2023-02-01T17:26:16;5.60;47.70
2751;DHT22;1383;48.362;10.908;2023-02-01T17:28:43;5.60;47.70
2751;DHT22;1383;48.362;10.908;2023-02-01T17:31:13;5.60;47.90
2751;DHT22;1383;48.362;10.908;2023-02-01T17:33:44;5.70;47.70
2751;DHT22;1383;48.362;10.908;2023-02-01T17:36:13;5.70;47.70
2751;DHT22;1383;48.362;10.908;2023-02-01T17:38:41;5.60;47.80
2751;DHT22;1383;48.362;10.908;2023-02-01T17:41:13;5.60;47.60
2751;DHT22;1383;48.362;10.908;2023-02-01T17:43:40;5.60;47.60
2751;DHT22;1383;48.362;10.908;2023-02-01T17:46:13;5.70;47.70
2751;DHT22;1383;48.362;10.908;2023-02-01T17:48:41;5.60;47.70
2751;DHT22;1383;48.362;10.908;2023-02-01T17:51:19;5.60;47.70
2751;DHT22;1383;48.362;10.908;2023-02-01T17:53:47;5.60;47.70
2751;DHT22;1383;48.362;10.908;2023-02-01T17:56:19;5.60;47.70
2751;DHT22;1383;48.362;10.908;2023-02-01T17:58:48;5.60;47.60
2751;DHT22;1383;48.362;10.908;2023-02-01T18:01:22;5.60;47.30
2751;DHT22;1383;48.362;10.908;2023-02-01T18:03:50;5.50;47.10
2751;DHT22;1383;48.362;10.908;2023-02-01T18:06:23;5.50;47.30
2751;DHT22;1383;48.362;10.908;2023-02-01T18:08:52;5.50;46.90
2751;DHT22;1383;48.362;10.908;2023-02-01T18:11:21;5.50;46.80
2751;DHT22;1383;48.362;10.908;2023-02-01T18:13:51;5.50;46.70
2751;DHT22;1383;48.362;10.908;2023-02-01T18:16:27;5.50;47.30
2751;DHT22;1383;48.362;10.908;2023-02-01T18:18:55;5.50;46.80
2751;DHT22;1383;48.362;10.908;2023-02-01T18:21:35;5.50;46.30
2751;DHT22;1383;48.362;10.908;2023-02-01T18:24:03;5.50;46.20
2751;DHT22;1383;48.362;10.908;2023-02-01T18:26:30;5.50;46.20
2751;DHT22;1383;48.362;10.908;2023-02-01T18:28:56;5.50;46.10
2751;DHT22;1383;48.362;10.908;2023-02-01T18:31:28;5.40;46.20
2751;DHT22;1383;48.362;10.908;2023-02-01T18:33:57;5.50;46.10
2751;DHT22;1383;48.362;10.908;2023-02-01T18:36:26;5.50;45.90
2751;DHT22;1383;48.362;10.908;2023-02-01T18:38:53;5.50;46.10
2751;DHT22;1383;48.362;10.908;2023-02-01T18:41:22;5.50;46.00
2751;DHT22;1383;48.362;10.908;2023-02-01T18:43:50;5.50;45.70
2751;DHT22;1383;48.362;10.908;2023-02-01T18:46:17;5.50;45.70
2751;DHT22;1383;48.362;10.908;2023-02-01T18:48:45;5.50;45.90
2751;DHT22;1383;48.362;10.908;2023-02-01T18:51:15;5.40;46.00
2751;DHT22;1383;48.362;10.908;2023-02-01T18:53:45;5.40;46.30
2751;DHT22;1383;48.362;10.908;2023-02-01T18:56:13;5.40;46.10
2751;DHT22;1383;48.362;10.908;2023-02-01T18:58:40;5.40;46.00
2751;DHT22;1383;48.362;10.908;2023-02-01T19:01:13;5.50;46.10
2751;DHT22;1383;48.362;10.908;2023-02-01T19:03:45;5.50;46.10
2751;DHT22;1383;48.362;10.908;2023-02-01T19:06:16;5.50;46.30